createdAt,value
2022-12-01T00:00:55.453Z,2.53
2022-12-01T00:04:58.458Z,2.55
2022-12-01T00:09:20.624Z,2.50
2022-12-01T00:13:23.681Z,2.46
2022-12-01T00:17:26.665Z,2.45
2022-12-01T00:21:29.924Z,2.39
2022-12-01T00:25:34.546Z,2.34
2022-12-01T00:29:37.470Z,2.28
2022-12-01T00:33:41.137Z,2.19
2022-12-01T00:37:44.761Z,2.10
2022-12-01T00:41:49.150Z,2.04
2022-12-01T00:45:52.428Z,1.95
2022-12-01T00:49:57.152Z,1.93
2022-12-01T00:54:00.256Z,1.89
2022-12-01T00:58:04.769Z,1.82
2022-12-01T01:02:09.403Z,1.80
2022-12-01T01:06:14.065Z,1.73
2022-12-01T01:10:17.164Z,1.69
2022-12-01T01:14:22.558Z,1.66
2022-12-01T01:18:25.884Z,1.65
2022-12-01T01:22:28.929Z,1.69
2022-12-01T01:26:33.185Z,1.63
2022-12-01T01:30:40.430Z,1.61
2022-12-01T01:34:43.737Z,1.56
2022-12-01T01:38:47.701Z,1.57
2022-12-01T01:42:51.005Z,1.57
2022-12-01T01:46:55.495Z,1.57
2022-12-01T01:50:58.866Z,1.55
2022-12-01T01:55:02.093Z,1.50
2022-12-01T01:59:05.539Z,1.49
2022-12-01T02:03:13.234Z,1.51
2022-12-01T02:07:19.412Z,1.54
2022-12-01T02:11:49.543Z,1.52
2022-12-01T02:16:03.718Z,1.54
2022-12-01T02:20:37.601Z,1.57
2022-12-01T02:25:09.681Z,1.49
2022-12-01T02:29:44.134Z,1.51
2022-12-01T02:33:54.455Z,1.51
2022-12-01T02:38:09.089Z,1.50
2022-12-01T02:42:38.908Z,1.55
2022-12-01T02:46:46.975Z,1.63
2022-12-01T02:50:53.339Z,1.70
2022-12-01T02:54:57.948Z,1.77
2022-12-01T02:59:01.219Z,1.84
2022-12-01T03:03:25.271Z,1.82
2022-12-01T03:07:44.789Z,1.77
2022-12-01T03:11:54.714Z,1.76
2022-12-01T03:16:02.211Z,1.71
2022-12-01T03:20:11.844Z,1.67
2022-12-01T03:24:18.419Z,1.54
2022-12-01T03:28:29.656Z,1.52
2022-12-01T03:32:36.500Z,1.52
2022-12-01T03:36:43.381Z,1.47
2022-12-01T03:40:50.948Z,1.49
2022-12-01T03:44:57.698Z,1.49
2022-12-01T03:49:00.701Z,1.51
2022-12-01T03:53:11.285Z,1.50
2022-12-01T03:57:22.827Z,1.39
2022-12-01T04:01:27.933Z,1.35
2022-12-01T04:05:32.387Z,1.30
2022-12-01T04:09:35.346Z,1.25
2022-12-01T04:13:40.030Z,1.21
2022-12-01T04:17:44.588Z,1.16
2022-12-01T04:21:47.621Z,1.14
2022-12-01T04:25:50.625Z,1.11
2022-12-01T04:29:55.026Z,1.09
2022-12-01T04:33:58.788Z,1.07
2022-12-01T04:38:02.245Z,1.02
2022-12-01T04:42:06.012Z,0.98
2022-12-01T04:46:10.461Z,0.95
2022-12-01T04:50:13.563Z,0.96
2022-12-01T04:54:16.899Z,0.93
2022-12-01T04:58:20.101Z,0.91
2022-12-01T05:02:24.485Z,0.92
2022-12-01T05:06:29.692Z,0.89
2022-12-01T05:10:32.703Z,0.87
2022-12-01T05:14:35.767Z,0.89
2022-12-01T05:18:41.733Z,0.88
2022-12-01T05:23:04.903Z,0.87
2022-12-01T05:27:07.819Z,0.88
2022-12-01T05:31:10.837Z,0.88
2022-12-01T05:35:15.344Z,0.89
2022-12-01T05:39:18.397Z,0.96
2022-12-01T05:43:28.335Z,1.04
2022-12-01T05:47:32.138Z,1.04
2022-12-01T05:51:36.448Z,1.00
2022-12-01T05:55:39.497Z,1.01
2022-12-01T05:59:42.494Z,1.00
2022-12-01T06:03:45.415Z,0.99
2022-12-01T06:07:50.327Z,1.06
2022-12-01T06:11:53.290Z,1.11
2022-12-01T06:16:00.717Z,1.13
2022-12-01T06:20:03.658Z,1.11
2022-12-01T06:24:08.817Z,1.10
2022-12-01T06:28:11.713Z,1.11
2022-12-01T06:32:14.686Z,1.10
2022-12-01T06:36:17.642Z,1.05
2022-12-01T06:40:22.484Z,1.03
2022-12-01T06:44:25.433Z,0.95
2022-12-01T06:48:28.287Z,0.92
2022-12-01T06:52:31.175Z,0.90
2022-12-01T06:56:35.467Z,0.91
2022-12-01T07:00:38.503Z,0.89
2022-12-01T07:04:41.431Z,0.86
2022-12-01T07:08:45.110Z,0.83
2022-12-01T07:12:49.477Z,0.77
2022-12-01T07:16:52.569Z,0.78
2022-12-01T07:20:55.581Z,0.74
2022-12-01T07:24:58.501Z,0.78
2022-12-01T07:29:02.748Z,0.82
2022-12-01T07:33:05.764Z,0.80
2022-12-01T07:37:08.692Z,0.80
2022-12-01T07:41:13.285Z,0.84
2022-12-01T07:45:17.690Z,0.84
2022-12-01T07:49:20.848Z,0.88
2022-12-01T07:53:25.104Z,0.92
2022-12-01T07:57:27.980Z,0.97
2022-12-01T08:01:32.899Z,1.00
2022-12-01T08:05:36.051Z,1.32
2022-12-01T08:09:39.012Z,1.54
2022-12-01T08:13:43.360Z,1.39
2022-12-01T08:17:47.820Z,1.31
2022-12-01T08:21:50.701Z,1.31
2022-12-01T08:25:54.024Z,1.35
2022-12-01T08:29:57.390Z,1.38
2022-12-01T08:34:01.644Z,1.42
2022-12-01T08:38:05.296Z,1.50
2022-12-01T08:42:08.171Z,1.58
2022-12-01T08:46:11.825Z,1.69
2022-12-01T08:50:16.263Z,1.67
2022-12-01T08:54:19.436Z,1.73
2022-12-01T08:58:22.342Z,1.83
2022-12-01T09:02:25.631Z,1.90
2022-12-01T09:06:30.000Z,1.92
2022-12-01T09:10:32.891Z,1.95
2022-12-01T09:14:38.079Z,2.02
2022-12-01T09:18:41.642Z,2.01
2022-12-01T09:22:46.085Z,2.04
2022-12-01T09:26:49.000Z,2.13
2022-12-01T09:30:51.910Z,2.19
2022-12-01T09:34:54.815Z,2.24
2022-12-01T09:38:59.371Z,2.23
2022-12-01T09:43:05.614Z,2.18
2022-12-01T09:47:18.864Z,2.11
2022-12-01T09:51:24.254Z,2.02
2022-12-01T09:55:31.321Z,2.08
2022-12-01T09:59:39.623Z,2.08
2022-12-01T10:03:48.366Z,2.12
2022-12-01T10:07:56.455Z,2.15
2022-12-01T10:12:07.864Z,2.15
2022-12-01T10:16:13.560Z,2.23
2022-12-01T10:20:21.689Z,2.29
2022-12-01T10:24:34.987Z,2.29
2022-12-01T10:29:03.660Z,2.28
2022-12-01T10:33:20.945Z,2.29
2022-12-01T10:37:27.349Z,2.31
2022-12-01T10:41:34.874Z,2.34
2022-12-01T10:45:45.772Z,2.39
2022-12-01T10:49:49.707Z,2.40
2022-12-01T10:53:59.581Z,2.41
2022-12-01T10:58:13.195Z,2.43
2022-12-01T11:02:21.419Z,2.44
2022-12-01T11:06:27.803Z,2.50
2022-12-01T11:10:32.831Z,2.75
2022-12-01T11:14:44.888Z,2.89
2022-12-01T11:18:49.160Z,2.95
2022-12-01T11:22:52.323Z,2.95
2022-12-01T11:26:58.212Z,2.97
2022-12-01T11:31:04.143Z,2.88
2022-12-01T11:35:18.784Z,2.85
2022-12-01T11:39:26.802Z,2.86
2022-12-01T11:43:31.808Z,2.91
2022-12-01T11:47:34.928Z,2.89
2022-12-01T11:51:39.236Z,2.94
2022-12-01T11:55:42.117Z,2.97
2022-12-01T11:59:45.084Z,3.06
2022-12-01T12:03:57.473Z,3.07
2022-12-01T12:08:16.125Z,3.09
2022-12-01T12:12:30.899Z,3.16
2022-12-01T12:16:45.432Z,3.14
2022-12-01T12:21:03.443Z,3.15
2022-12-01T12:25:23.934Z,3.12
2022-12-01T12:29:41.721Z,3.19
2022-12-01T12:34:08.068Z,3.17
2022-12-01T12:38:23.805Z,3.16
2022-12-01T12:42:35.689Z,3.19
2022-12-01T12:46:48.861Z,3.19
2022-12-01T12:51:02.895Z,3.21
2022-12-01T12:55:15.369Z,3.18
2022-12-01T12:59:26.094Z,3.22
2022-12-01T13:03:39.894Z,3.24
2022-12-01T13:07:47.492Z,3.26
2022-12-01T13:11:54.533Z,3.30
2022-12-01T13:16:02.328Z,3.33
2022-12-01T13:20:06.675Z,3.39
2022-12-01T13:24:16.237Z,3.37
2022-12-01T13:28:24.391Z,3.35
2022-12-01T13:32:34.099Z,3.35
2022-12-01T13:36:52.223Z,3.37
2022-12-01T13:41:13.148Z,3.34
2022-12-01T13:45:20.272Z,3.32
2022-12-01T13:49:39.689Z,3.33
2022-12-01T13:53:58.239Z,3.49
2022-12-01T13:58:26.421Z,3.58
2022-12-01T14:02:31.741Z,3.58
2022-12-01T14:06:46.432Z,3.54
2022-12-01T14:10:55.551Z,3.56
2022-12-01T14:15:01.631Z,3.55
2022-12-01T14:19:04.555Z,3.55
2022-12-01T14:23:21.356Z,3.54
2022-12-01T14:27:38.384Z,3.53
2022-12-01T14:32:05.216Z,3.51
2022-12-01T14:36:11.195Z,3.46
2022-12-01T14:40:24.679Z,3.44
2022-12-01T14:44:32.406Z,3.40
2022-12-01T14:48:41.939Z,3.35
2022-12-01T14:52:48.193Z,3.34
2022-12-01T14:56:55.481Z,3.35
2022-12-01T15:01:04.931Z,3.31
2022-12-01T15:05:10.919Z,3.30
2022-12-01T15:13:49.154Z,3.24
2022-12-01T15:17:55.459Z,3.28
2022-12-01T15:21:58.818Z,3.26
2022-12-01T15:26:01.855Z,3.24
2022-12-01T15:30:07.922Z,3.17
2022-12-01T15:34:16.537Z,3.12
2022-12-01T15:38:23.006Z,3.07
2022-12-01T15:42:29.252Z,3.12
2022-12-01T15:46:35.370Z,3.09
2022-12-01T15:50:46.258Z,3.09
2022-12-01T15:54:51.172Z,3.08
2022-12-01T15:58:58.680Z,3.04
2022-12-01T16:03:03.506Z,2.99
2022-12-01T16:07:09.525Z,2.95
2022-12-01T16:11:16.158Z,2.91
2022-12-01T16:15:22.796Z,2.86
2022-12-01T16:19:30.184Z,2.80
2022-12-01T16:23:34.339Z,2.78
2022-12-01T16:27:52.126Z,2.69
2022-12-01T16:32:19.196Z,2.62
2022-12-01T16:36:26.587Z,2.55
2022-12-01T16:40:29.977Z,2.51
2022-12-01T16:44:32.907Z,2.45
2022-12-01T16:48:37.784Z,2.42
2022-12-01T16:52:44.976Z,2.42
2022-12-01T16:56:49.611Z,2.40
2022-12-01T17:00:53.469Z,2.36
2022-12-01T17:04:56.550Z,2.32
2022-12-01T17:09:00.884Z,2.27
2022-12-01T17:13:03.964Z,2.18
2022-12-01T17:17:06.920Z,2.13
2022-12-01T17:21:11.604Z,2.08
2022-12-01T17:25:16.125Z,2.00
2022-12-01T17:29:18.999Z,1.97
2022-12-01T17:33:21.963Z,1.96
2022-12-01T17:37:27.680Z,1.94
2022-12-01T17:41:35.711Z,1.90
2022-12-01T17:45:42.016Z,1.87
2022-12-01T17:49:45.276Z,1.83
2022-12-01T17:53:48.471Z,1.82
2022-12-01T17:57:52.833Z,1.81
2022-12-01T18:01:55.829Z,1.81
2022-12-01T18:05:59.472Z,1.75
2022-12-01T18:10:02.640Z,1.72
2022-12-01T18:14:07.049Z,1.79
2022-12-01T18:18:10.034Z,1.79
2022-12-01T18:22:13.087Z,1.75
2022-12-01T18:26:16.543Z,1.69
2022-12-01T18:30:21.134Z,1.64
2022-12-01T18:34:24.329Z,1.59
2022-12-01T18:38:28.225Z,1.54
2022-12-01T18:42:31.406Z,1.53
2022-12-01T18:46:36.084Z,1.54
2022-12-01T18:50:39.113Z,1.51
2022-12-01T18:54:42.196Z,1.51
2022-12-01T18:58:45.220Z,1.44
2022-12-01T19:02:49.559Z,1.43
2022-12-01T19:06:52.686Z,1.42
2022-12-01T19:11:00.415Z,1.36
2022-12-01T19:15:03.798Z,1.35
2022-12-01T19:19:08.255Z,1.35
2022-12-01T19:23:11.188Z,1.33
2022-12-01T19:27:14.211Z,1.28
2022-12-01T19:31:19.928Z,1.25
2022-12-01T19:35:24.366Z,1.23
2022-12-01T19:39:27.397Z,1.20
2022-12-01T19:43:30.510Z,1.23
2022-12-01T19:47:33.985Z,1.21
2022-12-01T19:51:39.873Z,1.17
2022-12-01T19:55:42.924Z,1.15
2022-12-01T19:59:46.085Z,1.21
2022-12-01T20:03:51.000Z,1.21
2022-12-01T20:07:55.473Z,1.25
2022-12-01T20:11:58.681Z,1.23
2022-12-01T20:16:06.619Z,1.24
2022-12-01T20:20:11.041Z,1.25
2022-12-01T20:24:18.543Z,1.21
2022-12-01T20:28:21.502Z,1.23
2022-12-01T20:32:24.697Z,1.23
2022-12-01T20:36:28.715Z,1.24
2022-12-01T20:40:33.091Z,1.22
2022-12-01T20:44:36.139Z,1.17
2022-12-01T20:48:39.223Z,1.14
2022-12-01T20:52:42.652Z,1.12
2022-12-01T20:56:47.093Z,1.10
2022-12-01T21:00:50.331Z,1.11
2022-12-01T21:04:57.710Z,1.07
2022-12-01T21:09:03.346Z,1.03
2022-12-01T21:13:38.811Z,1.03
2022-12-01T21:17:47.544Z,0.99
2022-12-01T21:21:51.642Z,1.05
2022-12-01T21:25:54.736Z,1.01
2022-12-01T21:29:59.112Z,1.05
2022-12-01T21:34:02.870Z,1.06
2022-12-01T21:38:11.960Z,1.06
2022-12-01T21:42:18.515Z,1.05
2022-12-01T21:46:23.198Z,1.04
2022-12-01T21:50:27.274Z,1.04
2022-12-01T21:54:30.878Z,1.08
2022-12-01T21:58:37.665Z,1.07
2022-12-01T22:02:53.304Z,1.00
2022-12-01T22:06:58.348Z,0.94
2022-12-01T22:11:04.877Z,0.97
2022-12-01T22:15:26.128Z,0.96
2022-12-01T22:19:33.598Z,0.93
2022-12-01T22:23:36.609Z,0.92
2022-12-01T22:27:40.677Z,0.88
2022-12-01T22:31:43.686Z,0.87
2022-12-01T22:35:49.363Z,0.85
2022-12-01T22:39:55.143Z,0.85
2022-12-01T22:44:00.597Z,0.83
2022-12-01T22:48:03.731Z,0.83
2022-12-01T22:52:17.106Z,0.78
2022-12-01T22:56:30.405Z,0.81
2022-12-01T23:00:34.168Z,0.80
2022-12-01T23:04:41.727Z,0.77
2022-12-01T23:08:46.738Z,0.74
2022-12-01T23:12:51.552Z,0.72
2022-12-01T23:17:05.427Z,0.70
2022-12-01T23:21:08.424Z,0.69
2022-12-01T23:25:15.167Z,0.68
2022-12-01T23:29:18.155Z,0.66
2022-12-01T23:33:23.392Z,0.63
2022-12-01T23:37:34.354Z,0.59
2022-12-01T23:41:41.296Z,0.56
2022-12-01T23:45:44.956Z,0.51
2022-12-01T23:49:50.333Z,0.47
2022-12-01T23:53:54.578Z,0.47
2022-12-01T23:58:01.853Z,0.49
